»·PEaware :: N656BH KMCC-KPRB

N656BH :: KMCC-KPRB

FLIGHT INFORMATION

Flight Status: Arrived
Operator: Privately registered:
United States
More flights under this callsign
Pilot: Steve K. (2395)
Aircraft: BEECH AIRCRAFT SUPER KING AIR 350
(B350)
More flights by this aircraft type
Origin: KMCC McClellan
United States
Destination: KPRB Paso Robles Mun
United States
More flights between these airports :: More routes between these airports
Route: SAC SNS ROBIE DIRECT
File this flight plan on PilotEdge
Remarks: KingAir 350 -FSX-
Altitude:
(Current/Filed)
19,000ft
Speed:
(Current/Filed)
200kts
Departed: 07-Apr-15 11:55 AM
Arrived: 07-Apr-15 12:57 PM
Distance/Time
Traveled:
183nm/1:02
Distance/Time
To Go:
Arrived

Flight Plot

Page will automatically refresh every two minutes.


Map Options




Map Legend


Flown Route
Filed Route
Departure Airport
Arrival Airport
Navaid (VOR, NDB)
Fix

Horizontal Profiles

Position Reports

Time Latitude Longitude Heading Altitude Ground
Speed
07-Apr-15 11:49 38.670937 -121.396958 299 79ft 0kts
07-Apr-15 11:50 38.670968 -121.397030 297 79ft 5kts
07-Apr-15 11:51 38.673264 -121.398898 356 79ft 23kts
07-Apr-15 11:52 38.677936 -121.398901 355 79ft 11kts
07-Apr-15 11:53 38.681836 -121.399781 262 79ft 11kts
07-Apr-15 11:54 38.662701 -121.400683 178 923ft 130kts
07-Apr-15 11:55 38.632246 -121.423577 223 3670ft 150kts
07-Apr-15 11:56 38.590788 -121.457639 210 6245ft 152kts
07-Apr-15 11:57 38.559108 -121.478097 210 8064ft 154kts
07-Apr-15 11:58 38.513878 -121.506808 210 10627ft 157kts
07-Apr-15 11:59 38.480912 -121.527714 211 12465ft 160kts
07-Apr-15 12:00 38.439086 -121.549907 193 14670ft 171kts
07-Apr-15 12:01 38.389735 -121.552667 189 16879ft 181kts
07-Apr-15 12:02 38.338773 -121.554289 188 18771ft 187kts
07-Apr-15 12:03 38.275915 -121.556313 188 18946ft 197kts
07-Apr-15 12:04 38.239252 -121.557396 188 18945ft 197kts
07-Apr-15 12:05 38.184459 -121.559010 188 18943ft 197kts
07-Apr-15 12:06 38.129508 -121.560612 188 18944ft 196kts
07-Apr-15 12:07 38.065866 -121.562496 188 18942ft 195kts
07-Apr-15 12:08 38.020588 -121.563834 188 18942ft 195kts
07-Apr-15 12:09 37.948066 -121.565942 189 18955ft 193kts
07-Apr-15 12:10 37.903283 -121.567262 189 18956ft 192kts
07-Apr-15 12:11 37.849540 -121.568848 189 18957ft 194kts
07-Apr-15 12:12 37.795217 -121.570435 189 18960ft 196kts
07-Apr-15 12:13 37.740054 -121.572033 190 18969ft 198kts
07-Apr-15 12:14 37.675034 -121.573928 190 18968ft 202kts
07-Apr-15 12:15 37.637494 -121.575016 190 18970ft 203kts
07-Apr-15 12:16 37.580876 -121.576633 190 18982ft 202kts
07-Apr-15 12:17 37.505653 -121.578828 190 18982ft 203kts
07-Apr-15 12:18 37.467645 -121.579928 190 18983ft 204kts
07-Apr-15 12:19 37.392048 -121.582092 190 18993ft 202kts
07-Apr-15 12:20 37.354591 -121.583181 190 18993ft 202kts
07-Apr-15 12:21 37.278704 -121.585381 190 18994ft 206kts
07-Apr-15 12:22 37.240331 -121.586474 191 18999ft 207kts
07-Apr-15 12:23 37.172396 -121.588427 190 18998ft 210kts
07-Apr-15 12:24 37.113621 -121.590106 190 18997ft 211kts
07-Apr-15 12:25 37.064863 -121.591476 191 18990ft 208kts
07-Apr-15 12:26 36.997563 -121.593410 191 18988ft 206kts
07-Apr-15 12:27 36.949447 -121.594809 191 18993ft 207kts
07-Apr-15 12:28 36.882747 -121.596742 189 18970ft 201kts
07-Apr-15 12:29 36.836646 -121.598038 189 18967ft 197kts
07-Apr-15 12:30 36.763444 -121.600077 195 19018ft 198kts
07-Apr-15 12:31 36.708028 -121.601731 196 19022ft 197kts
07-Apr-15 12:32 36.671270 -121.601148 181 19020ft 213kts
07-Apr-15 12:33 36.609123 -121.545882 154 19022ft 243kts
07-Apr-15 12:34 36.564801 -121.500239 154 18494ft 253kts
07-Apr-15 12:35 36.510077 -121.445414 153 17496ft 252kts
07-Apr-15 12:36 36.455453 -121.391325 153 16495ft 249kts
07-Apr-15 12:37 36.392433 -121.329246 152 15328ft 245kts
07-Apr-15 12:38 36.338982 -121.276747 151 14326ft 243kts
07-Apr-15 12:39 36.286462 -121.225248 149 13488ft 238kts
07-Apr-15 12:40 36.233297 -121.173264 149 12902ft 247kts
07-Apr-15 12:41 36.189315 -121.130105 151 12390ft 236kts
07-Apr-15 12:42 36.138230 -121.080316 151 11789ft 232kts
07-Apr-15 12:43 36.087650 -121.031127 150 11187ft 229kts
07-Apr-15 12:44 36.028800 -120.974066 149 10486ft 233kts
07-Apr-15 12:45 35.983375 -120.941419 158 9419ft 226kts
07-Apr-15 12:46 35.933716 -120.894223 118 8152ft 244kts
07-Apr-15 12:47 35.956229 -120.808220 92 6504ft 236kts
07-Apr-15 12:48 35.933923 -120.749128 126 5275ft 227kts
07-Apr-15 12:49 35.884570 -120.653712 120 4396ft 209kts
07-Apr-15 12:51 35.804500 -120.610326 182 3594ft 199kts
07-Apr-15 12:52 35.755994 -120.607213 188 2823ft 141kts
07-Apr-15 12:53 35.724907 -120.611091 183 1993ft 140kts
07-Apr-15 12:54 35.682434 -120.603620 161 1562ft 126kts
07-Apr-15 12:55 35.658935 -120.606325 268 1523ft 107kts
07-Apr-15 12:56 35.675907 -120.625707 291 840ft 2kts
07-Apr-15 12:57 35.677379 -120.630348 231 840ft 14kts
07-Apr-15 12:58 35.676974 -120.630722 350 840ft 0kts
07-Apr-15 12:59 35.676974 -120.630722 350 840ft 0kts
07-Apr-15 13:00 35.676974 -120.630722 350 840ft 0kts
07-Apr-15 13:01 35.676974 -120.630722 350 840ft 0kts
07-Apr-15 13:02 35.676974 -120.630722 350 840ft 0kts
07-Apr-15 13:03 35.676974 -120.630722 350 840ft 0kts
07-Apr-15 13:04 35.676974 -120.630722 350 840ft 0kts
07-Apr-15 13:05 35.676974 -120.630722 350 840ft 0kts
07-Apr-15 13:06 35.676974 -120.630722 350 840ft 0kts
07-Apr-15 13:07 35.676974 -120.630722 350 840ft 0kts
07-Apr-15 13:08 35.676974 -120.630722 350 840ft 0kts
07-Apr-15 13:09 35.676974 -120.630722 350 840ft 0kts
07-Apr-15 13:10 35.676974 -120.630722 350 840ft 0kts

Navigation Log

Ident Type
Flight plan parsing failed, navigation log unavailable